createdAt,value
2022-09-22T00:03:02.423Z,7.81
2022-09-22T00:08:06.678Z,7.94
2022-09-22T00:13:09.568Z,7.59
2022-09-22T00:18:12.500Z,7.70
2022-09-22T00:23:16.814Z,7.72
2022-09-22T00:28:19.931Z,7.66
2022-09-22T00:33:22.845Z,7.62
2022-09-22T00:38:27.142Z,7.54
2022-09-22T00:43:32.482Z,7.60
2022-09-22T00:48:39.535Z,7.55
2022-09-22T00:53:46.201Z,7.48
2022-09-22T00:58:52.896Z,7.41
2022-09-22T01:03:57.438Z,7.23
2022-09-22T01:09:03.054Z,7.44
2022-09-22T01:14:15.000Z,7.46
2022-09-22T01:19:47.151Z,7.34
2022-09-22T01:25:09.157Z,7.17
2022-09-22T01:30:25.596Z,7.24
2022-09-22T01:35:33.848Z,7.15
2022-09-22T01:40:43.941Z,7.30
2022-09-22T01:45:49.545Z,7.22
2022-09-22T01:50:56.166Z,6.99
2022-09-22T01:56:05.861Z,7.17
2022-09-22T02:01:14.967Z,7.07
2022-09-22T02:06:22.743Z,7.08
2022-09-22T02:11:25.960Z,6.99
2022-09-22T02:16:31.054Z,6.91
2022-09-22T02:21:33.996Z,6.42
2022-09-22T02:26:37.901Z,6.41
2022-09-22T02:31:42.344Z,6.39
2022-09-22T02:36:55.990Z,6.50
2022-09-22T02:42:12.581Z,6.38
2022-09-22T02:47:23.542Z,6.33
2022-09-22T02:52:26.747Z,6.28
2022-09-22T02:57:29.651Z,6.33
2022-09-22T03:02:33.903Z,6.18
2022-09-22T03:07:37.106Z,6.06
2022-09-22T03:13:02.394Z,6.12
2022-09-22T03:18:06.973Z,6.11
2022-09-22T03:23:10.366Z,5.96
2022-09-22T03:28:13.233Z,5.71
2022-09-22T03:33:17.630Z,5.77
2022-09-22T03:38:20.551Z,5.70
2022-09-22T03:43:23.529Z,5.75
2022-09-22T03:48:29.066Z,5.58
2022-09-22T03:53:31.956Z,5.56
2022-09-22T03:58:35.389Z,5.61
2022-09-22T04:03:41.019Z,5.62
2022-09-22T04:08:44.015Z,5.52
2022-09-22T04:13:46.952Z,5.59
2022-09-22T04:18:51.249Z,5.51
2022-09-22T04:23:54.132Z,5.54
2022-09-22T04:28:57.037Z,5.35
2022-09-22T04:34:04.260Z,5.41
2022-09-22T04:39:10.424Z,5.40
2022-09-22T04:44:13.292Z,4.84
2022-09-22T04:49:17.609Z,4.63
2022-09-22T04:54:20.488Z,4.88
2022-09-22T04:59:23.514Z,5.06
2022-09-22T05:04:27.907Z,4.85
2022-09-22T05:09:30.949Z,5.06
2022-09-22T05:14:34.674Z,4.98
2022-09-22T05:19:38.945Z,3.86
2022-09-22T05:24:42.573Z,4.42
2022-09-22T05:29:45.466Z,4.81
2022-09-22T05:34:49.720Z,5.41
2022-09-22T05:39:52.603Z,6.19
2022-09-22T05:44:55.485Z,6.62
2022-09-22T05:49:59.740Z,7.14
2022-09-22T05:55:02.645Z,6.93
2022-09-22T06:00:08.624Z,6.67
2022-09-22T06:05:19.643Z,6.59
2022-09-22T06:10:22.635Z,7.63
2022-09-22T06:15:26.008Z,8.67
2022-09-22T06:20:30.340Z,8.69
2022-09-22T06:25:33.305Z,8.21
2022-09-22T06:30:38.165Z,9.21
2022-09-22T06:35:45.356Z,9.86
2022-09-22T06:40:48.908Z,9.79
2022-09-22T06:45:52.638Z,10.23
2022-09-22T06:50:56.977Z,9.54
2022-09-22T06:56:00.363Z,9.77
2022-09-22T07:01:09.878Z,9.79
2022-09-22T07:06:20.433Z,10.18
2022-09-22T07:11:23.697Z,9.82
2022-09-22T07:16:28.180Z,10.79
2022-09-22T07:21:35.300Z,11.58
2022-09-22T07:26:39.988Z,11.98
2022-09-22T07:31:43.348Z,12.37
2022-09-22T07:36:49.072Z,12.71
2022-09-22T07:41:52.322Z,12.81
2022-09-22T07:46:55.583Z,11.81
2022-09-22T07:51:59.979Z,12.56
2022-09-22T07:57:08.741Z,13.36
2022-09-22T08:02:11.939Z,13.47
2022-09-22T08:07:16.439Z,13.79
2022-09-22T08:12:19.380Z,14.00
2022-09-22T08:17:22.357Z,14.43
2022-09-22T08:22:26.697Z,14.56
2022-09-22T08:27:30.482Z,14.96
2022-09-22T08:32:36.114Z,14.10
2022-09-22T08:37:42.329Z,11.77
2022-09-22T08:42:45.607Z,12.56
2022-09-22T08:48:10.312Z,12.24
2022-09-22T08:53:18.010Z,13.27
2022-09-22T08:58:40.546Z,13.56
2022-09-22T09:03:58.759Z,12.80
2022-09-22T09:09:40.515Z,13.65
2022-09-22T09:15:10.429Z,11.72
2022-09-22T09:20:18.674Z,13.25
2022-09-22T09:25:34.915Z,13.35
2022-09-22T09:30:44.367Z,13.74
2022-09-22T09:35:52.231Z,13.72
2022-09-22T09:41:03.852Z,14.89
2022-09-22T09:46:17.097Z,13.23
2022-09-22T09:51:21.748Z,14.24
2022-09-22T09:56:28.210Z,12.43
2022-09-22T10:01:32.251Z,12.23
2022-09-22T10:06:35.211Z,13.19
2022-09-22T10:11:39.475Z,13.83
2022-09-22T10:16:52.803Z,13.77
2022-09-22T10:22:18.318Z,13.45
2022-09-22T10:27:27.716Z,13.63
2022-09-22T10:32:31.018Z,13.83
2022-09-22T10:37:34.418Z,13.93
2022-09-22T10:42:41.834Z,14.07
2022-09-22T10:47:57.509Z,13.92
2022-09-22T10:53:17.588Z,14.55
2022-09-22T10:58:54.223Z,14.02
2022-09-22T11:04:18.626Z,14.63
2022-09-22T11:09:46.790Z,14.80
2022-09-22T11:15:19.958Z,13.57
2022-09-22T11:20:34.330Z,13.39
2022-09-22T11:25:54.366Z,12.86
2022-09-22T11:30:59.207Z,12.73
2022-09-22T11:36:24.424Z,13.32
2022-09-22T11:41:31.958Z,14.51
2022-09-22T11:46:52.254Z,14.08
2022-09-22T11:52:17.289Z,15.11
2022-09-22T11:57:24.868Z,16.04
2022-09-22T12:02:35.752Z,14.06
2022-09-22T12:07:47.125Z,13.92
2022-09-22T12:12:51.866Z,14.95
2022-09-22T12:18:02.622Z,13.47
2022-09-22T12:23:31.891Z,14.55
2022-09-22T12:28:41.219Z,15.29
2022-09-22T12:33:51.217Z,15.21
2022-09-22T12:38:54.184Z,14.02
2022-09-22T12:44:09.248Z,13.15
2022-09-22T12:49:17.844Z,13.35
2022-09-22T12:54:39.658Z,13.12
2022-09-22T13:00:07.499Z,13.36
2022-09-22T13:05:34.954Z,13.76
2022-09-22T13:11:03.977Z,13.36
2022-09-22T13:16:37.155Z,14.14
2022-09-22T13:21:41.883Z,13.33
2022-09-22T13:26:44.820Z,13.64
2022-09-22T13:31:51.162Z,14.29
2022-09-22T13:37:00.289Z,14.00
2022-09-22T13:42:07.623Z,14.06
2022-09-22T13:47:17.135Z,13.86
2022-09-22T13:52:24.782Z,13.53
2022-09-22T13:57:31.151Z,13.79
2022-09-22T14:02:34.509Z,14.25
2022-09-22T14:07:49.876Z,14.55
2022-09-22T14:13:02.407Z,13.77
2022-09-22T14:18:11.525Z,14.02
2022-09-22T14:23:23.951Z,13.52
2022-09-22T14:28:30.125Z,14.20
2022-09-22T14:33:34.640Z,14.67
2022-09-22T14:38:45.878Z,14.54
2022-09-22T14:43:53.007Z,15.02
2022-09-22T14:48:55.956Z,15.16
2022-09-22T14:54:05.710Z,15.33
2022-09-22T14:59:24.156Z,15.36
2022-09-22T15:04:31.124Z,14.81
2022-09-22T15:09:40.400Z,15.06
2022-09-22T15:14:44.455Z,14.63
2022-09-22T15:19:51.177Z,14.87
2022-09-22T15:24:55.820Z,15.21
2022-09-22T15:29:58.743Z,14.60
2022-09-22T15:35:01.924Z,14.47
2022-09-22T15:40:16.640Z,13.59
2022-09-22T15:45:21.681Z,13.67
2022-09-22T15:50:28.955Z,13.40
2022-09-22T15:55:34.494Z,13.63
2022-09-22T16:00:38.999Z,13.63
2022-09-22T16:05:42.314Z,12.85
2022-09-22T16:10:46.678Z,13.03
2022-09-22T16:15:50.407Z,12.84
2022-09-22T16:20:53.737Z,12.75
2022-09-22T16:25:58.106Z,12.50
2022-09-22T16:31:03.126Z,12.44
2022-09-22T16:36:06.778Z,12.34
2022-09-22T16:41:20.206Z,12.28
2022-09-22T16:46:30.492Z,12.05
2022-09-22T16:51:35.601Z,11.88
2022-09-22T16:56:40.268Z,11.67
2022-09-22T17:01:44.050Z,11.48
2022-09-22T17:06:47.962Z,11.42
2022-09-22T17:11:52.671Z,11.29
2022-09-22T17:16:57.414Z,11.18
2022-09-22T17:22:00.441Z,10.97
2022-09-22T17:27:05.565Z,10.65
2022-09-22T17:32:09.122Z,10.46
2022-09-22T17:37:14.236Z,10.45
2022-09-22T17:42:20.137Z,10.31
2022-09-22T17:47:54.837Z,10.22
2022-09-22T17:53:15.278Z,9.83
2022-09-22T17:58:19.563Z,9.94
2022-09-22T18:03:22.516Z,9.80
2022-09-22T18:08:25.768Z,9.59
2022-09-22T18:13:30.125Z,9.48
2022-09-22T18:18:33.074Z,9.37
2022-09-22T18:23:36.926Z,9.26
2022-09-22T18:28:41.653Z,9.20
2022-09-22T18:33:45.163Z,9.14
2022-09-22T18:38:48.097Z,8.92
2022-09-22T18:43:54.402Z,8.84
2022-09-22T18:49:04.796Z,8.64
2022-09-22T18:54:08.735Z,8.59
2022-09-22T18:59:15.187Z,8.44
2022-09-22T19:04:21.083Z,8.39
2022-09-22T19:09:24.039Z,8.36
2022-09-22T19:14:36.309Z,8.27
2022-09-22T19:19:42.204Z,8.02
2022-09-22T19:24:46.096Z,7.91
2022-09-22T19:29:51.848Z,7.82
2022-09-22T19:34:55.713Z,7.91
2022-09-22T19:39:58.672Z,7.73
2022-09-22T19:45:03.155Z,7.61
2022-09-22T19:50:08.037Z,7.50
2022-09-22T19:55:12.141Z,7.53
2022-09-22T20:00:25.654Z,7.52
2022-09-22T20:05:31.571Z,7.31
2022-09-22T20:10:35.081Z,7.30
2022-09-22T20:15:39.974Z,7.08
2022-09-22T20:20:44.410Z,7.19
2022-09-22T20:25:47.725Z,7.08
2022-09-22T20:30:52.037Z,6.78
2022-09-22T20:35:56.228Z,6.84
2022-09-22T20:41:02.697Z,6.75
2022-09-22T20:46:07.619Z,6.68
2022-09-22T20:51:10.547Z,6.59
2022-09-22T20:56:13.958Z,6.46
2022-09-22T21:01:18.707Z,6.33
2022-09-22T21:06:22.572Z,6.20
2022-09-22T21:11:26.577Z,6.10
2022-09-22T21:16:31.367Z,6.16
2022-09-22T21:21:37.769Z,6.01
2022-09-22T21:26:40.701Z,6.00
2022-09-22T21:31:46.349Z,5.96
2022-09-22T21:36:49.248Z,5.88
2022-09-22T21:41:52.152Z,5.79
2022-09-22T21:46:56.424Z,5.66
2022-09-22T21:52:00.720Z,5.72
2022-09-22T21:57:03.671Z,5.74
2022-09-22T22:02:07.905Z,5.58
2022-09-22T22:07:11.959Z,5.54
2022-09-22T22:12:14.880Z,5.48
2022-09-22T22:17:19.721Z,5.39
2022-09-22T22:22:22.640Z,5.21
2022-09-22T22:27:25.631Z,5.30
2022-09-22T22:32:29.901Z,5.29
2022-09-22T22:37:32.902Z,5.18
2022-09-22T22:42:35.809Z,5.09
2022-09-22T22:47:40.064Z,4.42
2022-09-22T22:52:44.128Z,4.90
2022-09-22T22:57:47.024Z,5.10
2022-09-22T23:02:52.494Z,4.88
2022-09-22T23:07:55.440Z,4.80
2022-09-22T23:12:59.749Z,4.83
2022-09-22T23:18:04.042Z,4.81
2022-09-22T23:23:06.929Z,4.75
2022-09-22T23:28:09.859Z,4.78
2022-09-22T23:33:14.475Z,4.75
2022-09-22T23:38:17.583Z,4.53
2022-09-22T23:43:20.595Z,4.42
2022-09-22T23:48:26.489Z,4.46
2022-09-22T23:53:31.506Z,4.53
2022-09-22T23:58:35.230Z,4.41
